Edna T. Gattle — WDD2528 — position and weather

sailwx.info

Track history (hours):
 
Tides and Currents Weather Stations Pressure Air Temp Water Temp Dewpoint Dewpoint Depression Visibility Wind Speed Wind Dir Waves Ship Positions

Edna T. Gattle

Owner: Terral RiverService, Inc., Lake Providence, LA. More information available from US FCC via Universal Licensing System and Coast Guard Vessel Documentation Center.

Last reported at 2016-Apr-06 23:14 UTC. Time now 2016-May-29 07:45 UTC.
Position N 29°34' W 090°56'.
Warning: this ship's position is 52 days out of date.

Length 33 m; draft 2.8 m.

Type: Towing. MMSI: 367116420.

Date/timePositionNaut miles runAvg speedWind from/ knotsBaromVisibWave heightAir tempDewpointWater temp
2016-Apr-06 23:14N 29°34' W 090°56'5 7.6
2016-Apr-06 22:33N 29°32' W 090°50'6 6.1
2016-Apr-06 21:33N 29°34' W 090°44'3 3.4
2016-Apr-06 20:33N 29°36' W 090°41'1 1.0
2016-Apr-06 19:33N 29°36' W 090°40'0 0.0
2016-Apr-06 18:33N 29°36' W 090°40'0 0.1
2016-Apr-06 17:33N 29°36' W 090°40'0 0.0
2016-Apr-06 16:33N 29°36' W 090°40'0 0.2
2016-Apr-06 15:33N 29°36' W 090°40'0 0.0
2016-Apr-06 14:33N 29°36' W 090°40'0 0.0
2016-Apr-06 13:33N 29°36' W 090°40'0 0.0
2016-Apr-06 12:33N 29°36' W 090°40'0 0.0
2016-Apr-06 11:33N 29°36' W 090°40'0 0.0
2016-Apr-06 10:33N 29°36' W 090°40'0 0.0
2016-Apr-06 09:33N 29°36' W 090°40'0 0.0
2016-Apr-06 08:33N 29°36' W 090°40'0 0.0
2016-Apr-06 07:33N 29°36' W 090°40'0 0.0
2016-Apr-06 06:33N 29°36' W 090°40'0 0.0
2016-Apr-06 05:33N 29°36' W 090°40'0 0.0
2016-Apr-06 04:31N 29°36' W 090°40'0 0.0
2016-Apr-06 03:33N 29°36' W 090°40'0 0.0
2016-Apr-06 02:33N 29°36' W 090°40'0 0.0
2016-Apr-06 01:33N 29°36' W 090°40'0 0.0
2016-Apr-06 00:33N 29°36' W 090°40'0 0.0
2016-Apr-05 23:33N 29°36' W 090°40'0 0.0
2016-Apr-05 22:33N 29°36' W 090°40'0 0.1
2016-Apr-05 21:33N 29°36' W 090°40'0 0.0
2016-Apr-05 20:33N 29°36' W 090°40'0 0.0
2016-Apr-05 19:33N 29°36' W 090°40'0 0.1
2016-Apr-05 18:33N 29°36' W 090°40'0 0.1
2016-Apr-05 17:33N 29°36' W 090°40'0 0.0
2016-Apr-05 16:33N 29°36' W 090°40'0 0.0
2016-Apr-05 15:33N 29°36' W 090°40'0 0.4
2016-Apr-05 14:33N 29°36' W 090°40'0 0.4
2016-Apr-05 13:33N 29°36' W 090°40'0 0.0
2016-Apr-05 12:33N 29°36' W 090°40'0 0.1
2016-Apr-05 11:33N 29°36' W 090°40'0 0.1
2016-Apr-05 10:33N 29°36' W 090°40'0 0.0
2016-Apr-05 09:33N 29°36' W 090°40'0 0.0
2016-Apr-05 08:33N 29°36' W 090°40'0 0.0
2016-Apr-05 07:33N 29°36' W 090°40'0 0.0
2016-Apr-05 06:33N 29°36' W 090°40'0 0.0
2016-Apr-05 05:33N 29°36' W 090°40'0 0.0
2016-Apr-05 04:33N 29°36' W 090°40'0 0.0
2016-Apr-05 03:33N 29°36' W 090°40'0 0.0
2016-Apr-05 02:33N 29°36' W 090°40'0 0.0
2016-Apr-05 01:33N 29°36' W 090°40'0 0.0
2016-Apr-05 00:34N 29°36' W 090°40'0 0.0
2016-Apr-04 23:34N 29°36' W 090°40'0 0.0
2016-Apr-04 22:31N 29°36' W 090°40'1 1.0
2016-Apr-04 21:34N 29°36' W 090°41'2 2.3
2016-Apr-04 20:34N 29°35' W 090°43'4 3.7
2016-Apr-04 19:34N 29°32' W 090°46'  
Track history (hours):
 
Tides and Currents Weather Stations Pressure Air Temp Water Temp Dewpoint Dewpoint Depression Visibility Wind Speed Wind Dir Waves Ship Positions

Edna T. Gattle

Owner: Terral RiverService, Inc., Lake Providence, LA. More information available from US FCC via Universal Licensing System and Coast Guard Vessel Documentation Center.

Last reported at 2016-Apr-06 23:14 UTC. Time now 2016-May-29 07:45 UTC.
Position N 29°34' W 090°56'.
Warning: this ship's position is 52 days out of date.

Length 33 m; draft 2.8 m.

Type: Towing. MMSI: 367116420.

Date/timePositionNaut miles runAvg speedWind from/ knotsBaromVisibWave heightAir tempDewpointWater temp
2016-Apr-06 23:14N 29°34' W 090°56'5 7.6
2016-Apr-06 22:33N 29°32' W 090°50'6 6.1
2016-Apr-06 21:33N 29°34' W 090°44'3 3.4
2016-Apr-06 20:33N 29°36' W 090°41'1 1.0
2016-Apr-06 19:33N 29°36' W 090°40'0 0.0
2016-Apr-06 18:33N 29°36' W 090°40'0 0.1
2016-Apr-06 17:33N 29°36' W 090°40'0 0.0
2016-Apr-06 16:33N 29°36' W 090°40'0 0.2
2016-Apr-06 15:33N 29°36' W 090°40'0 0.0
2016-Apr-06 14:33N 29°36' W 090°40'0 0.0
2016-Apr-06 13:33N 29°36' W 090°40'0 0.0
2016-Apr-06 12:33N 29°36' W 090°40'0 0.0
2016-Apr-06 11:33N 29°36' W 090°40'0 0.0
2016-Apr-06 10:33N 29°36' W 090°40'0 0.0
2016-Apr-06 09:33N 29°36' W 090°40'0 0.0
2016-Apr-06 08:33N 29°36' W 090°40'0 0.0
2016-Apr-06 07:33N 29°36' W 090°40'0 0.0
2016-Apr-06 06:33N 29°36' W 090°40'0 0.0
2016-Apr-06 05:33N 29°36' W 090°40'0 0.0
2016-Apr-06 04:31N 29°36' W 090°40'0 0.0
2016-Apr-06 03:33N 29°36' W 090°40'0 0.0
2016-Apr-06 02:33N 29°36' W 090°40'0 0.0
2016-Apr-06 01:33N 29°36' W 090°40'0 0.0
2016-Apr-06 00:33N 29°36' W 090°40'0 0.0
2016-Apr-05 23:33N 29°36' W 090°40'0 0.0
2016-Apr-05 22:33N 29°36' W 090°40'0 0.1
2016-Apr-05 21:33N 29°36' W 090°40'0 0.0
2016-Apr-05 20:33N 29°36' W 090°40'0 0.0
2016-Apr-05 19:33N 29°36' W 090°40'0 0.1
2016-Apr-05 18:33N 29°36' W 090°40'0 0.1
2016-Apr-05 17:33N 29°36' W 090°40'0 0.0
2016-Apr-05 16:33N 29°36' W 090°40'0 0.0
2016-Apr-05 15:33N 29°36' W 090°40'0 0.4
2016-Apr-05 14:33N 29°36' W 090°40'0 0.4
2016-Apr-05 13:33N 29°36' W 090°40'0 0.0
2016-Apr-05 12:33N 29°36' W 090°40'0 0.1
2016-Apr-05 11:33N 29°36' W 090°40'0 0.1
2016-Apr-05 10:33N 29°36' W 090°40'0 0.0
2016-Apr-05 09:33N 29°36' W 090°40'0 0.0
2016-Apr-05 08:33N 29°36' W 090°40'0 0.0
2016-Apr-05 07:33N 29°36' W 090°40'0 0.0
2016-Apr-05 06:33N 29°36' W 090°40'0 0.0
2016-Apr-05 05:33N 29°36' W 090°40'0 0.0
2016-Apr-05 04:33N 29°36' W 090°40'0 0.0
2016-Apr-05 03:33N 29°36' W 090°40'0 0.0
2016-Apr-05 02:33N 29°36' W 090°40'0 0.0
2016-Apr-05 01:33N 29°36' W 090°40'0 0.0
2016-Apr-05 00:34N 29°36' W 090°40'0 0.0
2016-Apr-04 23:34N 29°36' W 090°40'0 0.0
2016-Apr-04 22:31N 29°36' W 090°40'1 1.0
2016-Apr-04 21:34N 29°36' W 090°41'2 2.3
2016-Apr-04 20:34N 29°35' W 090°43'4 3.7
2016-Apr-04 19:34N 29°32' W 090°46'  

Dump ship's entire track history